Time;durP1;ratioP1;P1;durP2;ratioP2;P2;SDS_P1;SDS_P2;PMS_P1;PMS_P2;Temp;Humidity;BMP_temperature;BMP_pressure;BME280_temperature;BME280_humidity;BME280_pressure;Samples;Min_cycle;Max_cycle;Signal;HPM_P1;HPM_P2
2023/06/02 00:01:17;;;;;;;;;;;18.70;74.70;;;;;;4943570;28;20264;-71
2023/06/02 00:03:44;;;;;;;;;;;18.70;74.70;;;;;;4926568;28;20001;-72
2023/06/02 00:06:11;;;;;;;;;;;18.60;74.80;;;;;;4949980;28;19910;-72
2023/06/02 00:08:38;;;;;;;;;;;18.60;74.60;;;;;;4946335;28;20346;-72
2023/06/02 00:11:05;;;;;;;;;;;18.60;74.60;;;;;;4949891;28;20001;-71
2023/06/02 00:13:30;;;;;;;;;;;18.70;74.50;;;;;;4950568;28;19992;-71
2023/06/02 00:15:57;;;;;;;;;;;18.70;74.40;;;;;;4954183;28;20371;-71
2023/06/02 00:18:25;;;;;;;;;;;18.70;74.40;;;;;;4955520;28;19918;-72
2023/06/02 00:20:51;;;;;;;;;;;18.70;74.60;;;;;;4956478;28;19933;-71
2023/06/02 00:23:18;;;;;;;;;;;18.70;74.70;;;;;;4951033;28;19914;-72
2023/06/02 00:25:44;;;;;;;;;;;18.80;74.70;;;;;;4946111;28;20088;-72
2023/06/02 00:28:10;;;;;;;;;;;18.80;74.70;;;;;;4951996;28;20016;-72
2023/06/02 00:30:36;;;;;;;;;;;18.80;74.60;;;;;;4952036;28;19922;-71
2023/06/02 00:33:01;;;;;;;;;;;18.80;74.60;;;;;;4951611;28;19918;-71
2023/06/02 00:35:27;;;;;;;;;;;18.80;74.90;;;;;;4950844;28;19976;-71
2023/06/02 00:37:53;;;;;;;;;;;18.70;74.30;;;;;;4926279;28;19960;-72
2023/06/02 00:40:21;;;;;;;;;;;18.70;73.90;;;;;;4951649;28;20548;-72
2023/06/02 00:42:47;;;;;;;;;;;18.70;74.00;;;;;;4947496;28;20525;-72
2023/06/02 00:45:12;;;;;;;;;;;18.70;74.20;;;;;;4954243;28;19996;-72
2023/06/02 00:47:38;;;;;;;;;;;18.70;74.40;;;;;;4951891;28;19914;-72
2023/06/02 00:50:03;;;;;;;;;;;18.50;75.10;;;;;;4948812;28;19914;-71
2023/06/02 00:52:32;;;;;;;;;;;18.20;76.50;;;;;;4956017;28;19918;-72
2023/06/02 00:54:58;;;;;;;;;;;18.20;77.00;;;;;;4948093;28;20252;-71
2023/06/02 00:57:28;;;;;;;;;;;18.10;77.60;;;;;;4950481;28;19925;-72
2023/06/02 00:59:55;;;;;;;;;;;18.00;78.00;;;;;;4948859;28;20361;-72
2023/06/02 01:02:21;;;;;;;;;;;18.00;78.10;;;;;;4956312;28;20021;-71
2023/06/02 01:04:47;;;;;;;;;;;17.90;78.40;;;;;;4949109;28;20680;-72
2023/06/02 01:07:13;;;;;;;;;;;17.90;78.40;;;;;;4954509;28;19965;-72
2023/06/02 01:09:40;;;;;;;;;;;17.90;79.10;;;;;;4947394;28;19974;-72
2023/06/02 01:12:06;;;;;;;;;;;17.80;79.90;;;;;;4932317;28;19911;-71
2023/06/02 01:14:32;;;;;;;;;;;17.80;80.60;;;;;;4924744;28;19981;-72
2023/06/02 01:16:59;;;;;;;;;;;17.70;80.70;;;;;;4950743;28;19918;-71
2023/06/02 01:19:25;;;;;;;;;;;17.70;80.60;;;;;;4949141;28;19938;-72
2023/06/02 01:22:00;;;;;;;;;;;17.60;80.90;;;;;;4951198;28;19915;-72
2023/06/02 01:24:40;;;;;;;;;;;17.60;81.70;;;;;;4928006;28;19915;-72
2023/06/02 01:27:06;;;;;;;;;;;17.50;82.10;;;;;;4953020;28;20401;-72
2023/06/02 01:29:35;;;;;;;;;;;17.50;82.40;;;;;;4945862;28;19919;-71
2023/06/02 01:32:08;;;;;;;;;;;17.50;82.60;;;;;;4925134;28;19914;-71
2023/06/02 01:35:00;;;;;;;;;;;17.50;83.00;;;;;;4949811;28;20776;-71
2023/06/02 01:37:28;;;;;;;;;;;17.60;83.20;;;;;;4941592;28;19957;-72
2023/06/02 01:39:54;;;;;;;;;;;17.60;82.70;;;;;;4950507;28;19918;-72
2023/06/02 01:42:21;;;;;;;;;;;17.70;83.10;;;;;;4951606;28;20630;-71
2023/06/02 01:44:47;;;;;;;;;;;17.70;83.10;;;;;;4947979;28;19918;-71
2023/06/02 01:47:15;;;;;;;;;;;17.70;83.00;;;;;;4948609;28;19960;-72
2023/06/02 01:49:42;;;;;;;;;;;17.70;82.90;;;;;;4947184;28;19982;-71
2023/06/02 01:52:07;;;;;;;;;;;17.80;82.90;;;;;;4949768;28;19910;-72
2023/06/02 01:54:33;;;;;;;;;;;17.80;83.20;;;;;;4952232;28;20623;-72
2023/06/02 01:56:58;;;;;;;;;;;17.80;82.80;;;;;;4945535;28;19918;-71
2023/06/02 01:59:25;;;;;;;;;;;17.80;82.80;;;;;;4946372;28;20324;-71
2023/06/02 02:01:51;;;;;;;;;;;17.80;83.40;;;;;;4948716;28;20256;-71
2023/06/02 02:04:16;;;;;;;;;;;17.80;83.30;;;;;;4923688;28;19921;-72
2023/06/02 02:06:45;;;;;;;;;;;17.80;82.90;;;;;;4945722;28;19919;-71
2023/06/02 02:09:11;;;;;;;;;;;17.80;83.50;;;;;;4953876;28;19978;-72
2023/06/02 02:11:38;;;;;;;;;;;17.80;83.40;;;;;;4952691;28;20635;-71
2023/06/02 02:14:06;;;;;;;;;;;17.80;83.30;;;;;;4953479;28;20347;-71
2023/06/02 02:16:31;;;;;;;;;;;17.80;83.40;;;;;;4947823;28;20564;-71
2023/06/02 02:18:59;;;;;;;;;;;17.80;83.20;;;;;;4947444;28;19918;-71
2023/06/02 02:21:25;;;;;;;;;;;17.80;83.40;;;;;;4947350;28;19957;-72
2023/06/02 02:23:51;;;;;;;;;;;17.90;83.50;;;;;;4944936;28;19910;-71
2023/06/02 02:26:18;;;;;;;;;;;17.90;82.80;;;;;;4948701;28;19911;-72
2023/06/02 02:28:45;;;;;;;;;;;18.00;82.80;;;;;;4949433;28;19922;-72
2023/06/02 02:31:11;;;;;;;;;;;18.10;81.90;;;;;;4943419;28;20793;-72
2023/06/02 02:33:36;;;;;;;;;;;18.20;80.80;;;;;;4944465;28;19911;-72
2023/06/02 02:36:02;;;;;;;;;;;18.20;81.50;;;;;;4951088;28;19919;-71
2023/06/02 02:38:28;;;;;;;;;;;18.20;81.70;;;;;;4947605;28;20387;-72
2023/06/02 02:40:53;;;;;;;;;;;18.20;81.50;;;;;;4943118;28;20554;-71
2023/06/02 02:43:19;;;;;;;;;;;18.30;81.40;;;;;;4947354;28;20608;-71
2023/06/02 02:45:47;;;;;;;;;;;18.30;81.50;;;;;;4946511;28;20434;-71
2023/06/02 02:48:12;;;;;;;;;;;18.40;81.20;;;;;;4945674;28;19918;-72
2023/06/02 02:50:38;;;;;;;;;;;18.50;81.40;;;;;;4946130;28;19915;-72
2023/06/02 02:53:04;;;;;;;;;;;18.60;81.20;;;;;;4944848;28;20746;-71
2023/06/02 02:55:34;;;;;;;;;;;18.50;81.20;;;;;;4942976;28;20379;-71
2023/06/02 02:58:01;;;;;;;;;;;18.50;82.60;;;;;;4949172;28;19921;-72
2023/06/02 03:00:27;;;;;;;;;;;18.40;83.10;;;;;;4947333;28;20005;-72
2023/06/02 03:02:56;;;;;;;;;;;18.40;83.50;;;;;;4951715;28;19914;-71
2023/06/02 03:05:22;;;;;;;;;;;18.30;84.10;;;;;;4930071;28;19917;-71
2023/06/02 03:07:49;;;;;;;;;;;18.30;85.00;;;;;;4925652;28;19910;-72
2023/06/02 03:10:15;;;;;;;;;;;18.20;85.20;;;;;;4946044;28;19961;-72
2023/06/02 03:12:42;;;;;;;;;;;18.20;85.50;;;;;;4951437;28;19922;-72
2023/06/02 03:15:07;;;;;;;;;;;18.20;86.10;;;;;;4948239;28;19946;-71
2023/06/02 03:17:34;;;;;;;;;;;18.20;85.70;;;;;;4948984;28;19961;-71
2023/06/02 03:20:01;;;;;;;;;;;18.30;86.60;;;;;;4950261;28;19940;-71
2023/06/02 03:22:28;;;;;;;;;;;18.40;85.90;;;;;;4944620;28;20360;-71
2023/06/02 03:24:54;;;;;;;;;;;18.40;86.30;;;;;;4944281;28;19911;-71
2023/06/02 03:27:20;;;;;;;;;;;18.50;86.20;;;;;;4944302;28;20363;-72
2023/06/02 03:29:47;;;;;;;;;;;18.60;86.80;;;;;;4945327;28;19969;-72
2023/06/02 03:32:13;;;;;;;;;;;18.60;87.90;;;;;;4944611;28;19918;-71
2023/06/02 03:34:39;;;;;;;;;;;18.60;88.70;;;;;;4949270;28;19918;-71
2023/06/02 03:37:05;;;;;;;;;;;18.60;90.00;;;;;;4941468;28;20937;-71
2023/06/02 03:39:31;;;;;;;;;;;18.60;90.20;;;;;;4954498;28;20380;-71
2023/06/02 03:41:58;;;;;;;;;;;18.60;91.10;;;;;;4951741;28;19949;-72
2023/06/02 03:44:23;;;;;;;;;;;18.70;91.10;;;;;;4933358;28;19911;-71
2023/06/02 03:46:49;;;;;;;;;;;18.80;91.40;;;;;;4950338;28;19941;-71
2023/06/02 03:49:14;;;;;;;;;;;18.90;91.50;;;;;;4953136;28;20017;-72
2023/06/02 03:51:43;;;;;;;;;;;18.90;91.90;;;;;;4948012;28;20008;-71
2023/06/02 03:54:08;;;;;;;;;;;18.90;92.30;;;;;;4955076;28;20053;-72
2023/06/02 03:56:34;;;;;;;;;;;19.00;92.40;;;;;;4948637;28;20017;-72
2023/06/02 03:59:00;;;;;;;;;;;19.20;92.20;;;;;;4949359;28;21398;-72
2023/06/02 04:01:27;;;;;;;;;;;19.30;92.30;;;;;;4955499;28;19921;-72
2023/06/02 04:03:52;;;;;;;;;;;19.30;92.40;;;;;;4951710;28;19914;-72
2023/06/02 04:06:18;;;;;;;;;;;19.30;92.90;;;;;;4947005;28;19961;-72
2023/06/02 04:08:45;;;;;;;;;;;19.30;93.00;;;;;;4950390;28;20005;-72
2023/06/02 04:11:10;;;;;;;;;;;19.40;92.90;;;;;;4948186;28;19912;-71
2023/06/02 04:13:36;;;;;;;;;;;19.60;92.80;;;;;;4953587;28;19917;-72
2023/06/02 04:16:02;;;;;;;;;;;19.70;92.80;;;;;;4951113;28;20728;-71
2023/06/02 04:18:30;;;;;;;;;;;19.80;92.60;;;;;;4947603;28;19954;-72
2023/06/02 04:20:58;;;;;;;;;;;19.90;92.60;;;;;;4925783;28;19922;-72
2023/06/02 04:23:23;;;;;;;;;;;19.90;92.80;;;;;;4953275;28;19921;-71
2023/06/02 04:25:49;;;;;;;;;;;19.80;93.00;;;;;;4926276;28;19914;-71
2023/06/02 04:28:15;;;;;;;;;;;19.70;94.00;;;;;;4954643;28;20291;-73
2023/06/02 04:30:42;;;;;;;;;;;19.50;94.60;;;;;;4946101;28;20681;-72
2023/06/02 04:33:08;;;;;;;;;;;19.30;95.00;;;;;;4947849;28;19915;-72
2023/06/02 04:35:36;;;;;;;;;;;19.40;95.50;;;;;;4951964;28;20002;-72
2023/06/02 04:38:03;;;;;;;;;;;19.40;95.50;;;;;;4924774;28;20813;-73
2023/06/02 04:40:28;;;;;;;;;;;19.60;95.30;;;;;;4951756;28;19997;-72
2023/06/02 04:42:54;;;;;;;;;;;19.90;94.10;;;;;;4952967;28;20383;-73
2023/06/02 04:45:23;;;;;;;;;;;20.00;93.40;;;;;;4954959;28;20303;-74
2023/06/02 04:47:49;;;;;;;;;;;20.20;93.40;;;;;;4943833;28;19921;-73
2023/06/02 04:50:15;;;;;;;;;;;20.50;92.70;;;;;;4944733;28;19910;-73
2023/06/02 04:52:43;;;;;;;;;;;20.60;92.20;;;;;;4953070;28;20432;-73
2023/06/02 04:55:10;;;;;;;;;;;20.80;91.80;;;;;;4945807;28;19919;-73
2023/06/02 04:57:36;;;;;;;;;;;21.00;91.00;;;;;;4947567;28;20362;-73
2023/06/02 05:00:06;;;;;;;;;;;21.10;90.60;;;;;;4948306;28;19954;-73
2023/06/02 05:02:31;;;;;;;;;;;21.20;89.50;;;;;;4949982;28;19914;-73
2023/06/02 05:04:57;;;;;;;;;;;21.30;91.10;;;;;;4951613;28;19917;-73
2023/06/02 05:07:23;;;;;;;;;;;21.20;90.40;;;;;;4951113;28;20296;-74
2023/06/02 05:09:50;;;;;;;;;;;21.30;90.20;;;;;;4950826;28;19910;-73
2023/06/02 05:12:18;;;;;;;;;;;21.50;88.70;;;;;;4953236;28;20056;-74
2023/06/02 05:14:45;;;;;;;;;;;21.60;88.20;;;;;;4944885;28;20017;-74
2023/06/02 05:17:11;;;;;;;;;;;21.50;88.40;;;;;;4952821;28;20187;-73
2023/06/02 05:19:39;;;;;;;;;;;21.50;87.70;;;;;;4953024;28;20415;-73
2023/06/02 05:22:06;;;;;;;;;;;21.50;87.20;;;;;;4950560;28;20044;-73
2023/06/02 05:24:32;;;;;;;;;;;21.60;87.20;;;;;;4942397;28;19918;-72
2023/06/02 05:26:58;;;;;;;;;;;21.70;86.50;;;;;;4927988;28;19929;-73
2023/06/02 05:29:24;;;;;;;;;;;21.80;86.30;;;;;;4951749;28;20454;-73
2023/06/02 05:31:51;;;;;;;;;;;21.90;86.10;;;;;;4948541;28;20103;-73
2023/06/02 05:34:25;;;;;;;;;;;22.00;85.80;;;;;;4949370;28;19914;-73
2023/06/02 05:36:50;;;;;;;;;;;22.20;85.80;;;;;;5186016;23;19933;-74
2023/06/02 05:39:17;;;;;;;;;;;22.30;85.80;;;;;;4969662;28;19917;-75
2023/06/02 05:41:46;;;;;;;;;;;22.50;85.40;;;;;;4969905;28;20063;-74
2023/06/02 05:44:14;;;;;;;;;;;22.60;83.60;;;;;;4966534;28;19918;-75
2023/06/02 05:46:43;;;;;;;;;;;22.80;84.30;;;;;;4965458;28;19918;-75
2023/06/02 05:49:16;;;;;;;;;;;23.00;82.70;;;;;;4965053;28;20529;-75
2023/06/02 05:51:53;;;;;;;;;;;23.30;81.80;;;;;;4984457;28;19919;-76
2023/06/02 05:54:22;;;;;;;;;;;23.90;79.60;;;;;;4959541;28;19992;-76
2023/06/02 05:56:56;;;;;;;;;;;24.60;78.10;;;;;;4972067;28;19918;-75
2023/06/02 05:59:21;;;;;;;;;;;25.00;74.10;;;;;;4967074;28;19914;-76
2023/06/02 06:01:51;;;;;;;;;;;26.70;71.50;;;;;;4969978;28;20314;-76
2023/06/02 06:04:20;;;;;;;;;;;28.40;67.60;;;;;;4967038;28;19917;-76
2023/06/02 06:06:46;;;;;;;;;;;29.50;65.10;;;;;;4969039;28;19910;-75
2023/06/02 06:09:11;;;;;;;;;;;30.20;62.60;;;;;;4964692;28;19993;-77
2023/06/02 06:11:37;;;;;;;;;;;30.20;62.10;;;;;;4969219;28;19998;-76
2023/06/02 06:14:07;;;;;;;;;;;30.20;61.20;;;;;;4959006;28;20001;-77
2023/06/02 06:16:39;;;;;;;;;;;30.10;62.10;;;;;;4966458;28;19953;-76
2023/06/02 06:19:04;;;;;;;;;;;29.90;61.20;;;;;;4965554;28;19914;-77
2023/06/02 06:21:31;;;;;;;;;;;29.20;61.60;;;;;;4950923;28;19929;-76
2023/06/02 06:23:57;;;;;;;;;;;29.20;63.20;;;;;;4949042;28;20483;-76
2023/06/02 06:26:24;;;;;;;;;;;28.60;61.50;;;;;;4944263;28;19921;-77
2023/06/02 06:28:54;;;;;;;;;;;29.00;60.00;;;;;;4944057;28;19919;-75
2023/06/02 06:31:20;;;;;;;;;;;29.50;58.00;;;;;;4945152;28;20226;-76
2023/06/02 06:33:54;;;;;;;;;;;30.90;57.50;;;;;;4942151;28;19960;-76
2023/06/02 06:36:25;;;;;;;;;;;32.10;55.40;;;;;;4945470;28;19968;-77
2023/06/02 06:38:51;;;;;;;;;;;32.10;54.50;;;;;;4942722;28;19972;-77
2023/06/02 06:41:21;;;;;;;;;;;30.50;54.70;;;;;;4939391;28;20318;-75
2023/06/02 06:43:51;;;;;;;;;;;30.50;56.10;;;;;;4946644;28;19928;-78
2023/06/02 06:46:18;;;;;;;;;;;31.70;55.00;;;;;;4950084;28;19946;-77
2023/06/02 06:48:45;;;;;;;;;;;33.20;53.60;;;;;;4938145;28;19918;-77
2023/06/02 06:51:13;;;;;;;;;;;33.80;52.30;;;;;;4950166;28;20778;-75
2023/06/02 06:53:40;;;;;;;;;;;34.00;52.60;;;;;;4942784;28;19915;-77
2023/06/02 06:56:08;;;;;;;;;;;33.10;52.40;;;;;;4966291;28;20186;-77
2023/06/02 06:58:35;;;;;;;;;;;33.80;52.00;;;;;;4942169;28;20005;-78
2023/06/02 07:01:00;;;;;;;;;;;34.10;51.10;;;;;;4944963;28;19914;-78
2023/06/02 07:03:26;;;;;;;;;;;35.40;50.40;;;;;;4946738;28;19925;-77
2023/06/02 07:05:52;;;;;;;;;;;36.40;49.50;;;;;;4945461;28;19918;-76
2023/06/02 07:08:29;;;;;;;;;;;36.90;48.90;;;;;;4963805;28;19918;-76
2023/06/02 07:10:55;;;;;;;;;;;37.80;48.00;;;;;;4948926;28;19918;-76
2023/06/02 07:13:21;;;;;;;;;;;37.30;47.20;;;;;;4951839;28;19910;-76
2023/06/02 07:15:48;;;;;;;;;;;36.30;48.60;;;;;;4941234;28;20018;-76
2023/06/02 07:18:14;;;;;;;;;;;36.90;47.90;;;;;;4949685;28;19925;-76
2023/06/02 07:20:39;;;;;;;;;;;34.10;49.80;;;;;;4945200;28;19918;-76
2023/06/02 07:23:05;;;;;;;;;;;34.60;50.20;;;;;;4944990;28;20057;-76
2023/06/02 07:25:32;;;;;;;;;;;35.90;49.60;;;;;;4945226;28;20009;-74
2023/06/02 07:28:00;;;;;;;;;;;37.30;47.90;;;;;;4953869;28;19937;-74
2023/06/02 07:30:27;;;;;;;;;;;36.80;47.40;;;;;;4954063;28;19976;-74
2023/06/02 07:32:52;;;;;;;;;;;35.80;48.30;;;;;;4951022;28;19917;-74
2023/06/02 07:35:19;;;;;;;;;;;36.20;48.50;;;;;;4951394;28;19910;-74
2023/06/02 07:37:44;;;;;;;;;;;34.90;49.10;;;;;;4949145;28;19914;-74
2023/06/02 07:40:10;;;;;;;;;;;36.00;48.80;;;;;;4950074;28;20295;-75
2023/06/02 07:42:37;;;;;;;;;;;37.70;47.80;;;;;;4947423;28;19910;-75
2023/06/02 07:45:04;;;;;;;;;;;39.20;46.20;;;;;;4945547;28;19989;-74
2023/06/02 07:47:29;;;;;;;;;;;40.40;45.50;;;;;;4952931;28;19918;-75
2023/06/02 07:49:55;;;;;;;;;;;40.20;45.90;;;;;;4950985;28;19910;-74
2023/06/02 07:52:21;;;;;;;;;;;41.10;44.70;;;;;;4950462;28;20010;-74
2023/06/02 07:54:47;;;;;;;;;;;42.00;43.90;;;;;;4949021;28;19922;-75
2023/06/02 07:57:13;;;;;;;;;;;42.30;43.10;;;;;;4969784;28;19929;-74
2023/06/02 07:59:41;;;;;;;;;;;42.10;43.60;;;;;;4962731;28;19938;-74
2023/06/02 08:02:07;;;;;;;;;;;41.50;43.40;;;;;;4950639;28;19922;-74
2023/06/02 08:04:33;;;;;;;;;;;41.90;43.30;;;;;;4943713;28;20394;-75
2023/06/02 08:07:01;;;;;;;;;;;42.00;43.20;;;;;;4946864;28;19926;-75
2023/06/02 08:09:28;;;;;;;;;;;42.20;42.80;;;;;;4953680;28;19918;-74
2023/06/02 08:12:00;;;;;;;;;;;42.60;42.50;;;;;;4947139;28;19956;-74
2023/06/02 08:14:26;;;;;;;;;;;43.10;42.60;;;;;;4947540;28;19921;-75
2023/06/02 08:16:55;;;;;;;;;;;42.80;42.50;;;;;;4956579;28;19914;-75
2023/06/02 08:19:22;;;;;;;;;;;42.50;42.60;;;;;;4951695;28;20348;-74
2023/06/02 08:21:48;;;;;;;;;;;42.80;41.50;;;;;;4963671;28;19950;-74
2023/06/02 08:24:16;;;;;;;;;;;43.20;41.80;;;;;;4939496;28;19962;-75
2023/06/02 08:26:44;;;;;;;;;;;43.30;41.70;;;;;;4944245;28;19918;-74
2023/06/02 08:29:11;;;;;;;;;;;42.10;42.30;;;;;;4952071;28;19910;-74
2023/06/02 08:31:36;;;;;;;;;;;42.20;41.80;;;;;;4944668;28;19929;-74
2023/06/02 08:34:05;;;;;;;;;;;41.30;42.90;;;;;;4940340;28;19914;-75
2023/06/02 08:36:33;;;;;;;;;;;41.70;42.00;;;;;;4944680;28;19938;-74
2023/06/02 08:38:59;;;;;;;;;;;41.50;41.80;;;;;;4948295;28;20021;-74
2023/06/02 08:41:26;;;;;;;;;;;41.50;42.00;;;;;;4947305;28;19925;-74
2023/06/02 08:43:52;;;;;;;;;;;42.60;41.40;;;;;;4949909;28;20286;-74
2023/06/02 08:46:19;;;;;;;;;;;42.60;41.50;;;;;;4950557;28;20318;-74
2023/06/02 08:48:47;;;;;;;;;;;43.20;41.50;;;;;;4953426;28;20320;-74
2023/06/02 08:51:15;;;;;;;;;;;43.00;41.40;;;;;;4954312;28;19948;-75
2023/06/02 08:53:41;;;;;;;;;;;43.50;41.40;;;;;;4950381;28;20044;-75
2023/06/02 08:56:10;;;;;;;;;;;43.90;41.30;;;;;;4954607;28;20471;-74
2023/06/02 08:58:36;;;;;;;;;;;44.00;41.00;;;;;;4943159;28;19910;-74
2023/06/02 09:01:02;;;;;;;;;;;44.00;41.20;;;;;;4954558;28;20415;-74
2023/06/02 09:03:28;;;;;;;;;;;44.00;41.50;;;;;;4954544;28;20367;-75
2023/06/02 09:05:54;;;;;;;;;;;44.10;40.50;;;;;;4950221;28;19993;-75
2023/06/02 09:08:20;;;;;;;;;;;43.20;40.50;;;;;;4949243;28;19915;-75
2023/06/02 09:10:49;;;;;;;;;;;42.30;41.10;;;;;;4946188;28;19922;-75
2023/06/02 09:13:33;;;;;;;;;;;42.10;41.90;;;;;;4953433;28;19953;-75
2023/06/02 09:16:00;;;;;;;;;;;41.60;41.90;;;;;;4953305;28;20005;-75
2023/06/02 09:18:28;;;;;;;;;;;40.30;42.80;;;;;;4945680;28;20016;-75
2023/06/02 09:20:58;;;;;;;;;;;37.30;44.40;;;;;;4946062;28;19914;-77
2023/06/02 09:23:39;;;;;;;;;;;37.00;45.30;;;;;;4947814;28;20391;-76
2023/06/02 09:26:24;;;;;;;;;;;38.20;44.70;;;;;;4951079;28;19918;-84
2023/06/02 09:29:09;;;;;;;;;;;37.60;44.10;;;;;;4963260;28;19941;-84
2023/06/02 09:31:52;;;;;;;;;;;37.00;45.60;;;;;;4969410;28;19915;-83
2023/06/02 09:34:22;;;;;;;;;;;38.30;44.70;;;;;;4948963;28;19918;-83
2023/06/02 09:37:06;;;;;;;;;;;39.60;44.10;;;;;;4945458;28;19910;-82
2023/06/02 09:39:35;;;;;;;;;;;38.80;43.50;;;;;;4945319;28;19922;-82
2023/06/02 09:42:02;;;;;;;;;;;37.00;44.20;;;;;;4950710;28;20357;-82
2023/06/02 09:44:30;;;;;;;;;;;36.80;45.70;;;;;;4948663;28;19914;-83
2023/06/02 09:46:56;;;;;;;;;;;37.90;45.10;;;;;;4947634;28;19957;-82
2023/06/02 09:49:22;;;;;;;;;;;38.80;44.10;;;;;;4946719;28;19914;-83
2023/06/02 09:51:50;;;;;;;;;;;39.10;43.40;;;;;;4946039;28;19932;-82
2023/06/02 09:54:20;;;;;;;;;;;38.90;43.30;;;;;;4943940;28;19914;-83
2023/06/02 09:56:48;;;;;;;;;;;38.40;43.20;;;;;;4938672;28;20326;-83
2023/06/02 09:59:17;;;;;;;;;;;37.60;43.80;;;;;;4949176;28;19922;-82
2023/06/02 10:01:47;;;;;;;;;;;37.40;43.80;;;;;;4946559;28;20005;-82
2023/06/02 10:04:13;;;;;;;;;;;37.60;43.60;;;;;;4950561;28;20352;-82
2023/06/02 10:06:48;;;;;;;;;;;36.20;44.30;;;;;;4942143;28;20001;-84
2023/06/02 10:09:18;;;;;;;;;;;36.30;45.40;;;;;;4947879;28;19918;-84
2023/06/02 10:11:49;;;;;;;;;;;35.30;45.70;;;;;;4947963;28;20599;-83
2023/06/02 10:14:14;;;;;;;;;;;35.20;47.00;;;;;;4948514;28;20526;-83
2023/06/02 10:16:58;;;;;;;;;;;37.00;45.30;;;;;;4950805;28;19910;-83
2023/06/02 10:19:56;;;;;;;;;;;37.60;44.30;;;;;;4968313;28;19911;-83
2023/06/02 10:22:45;;;;;;;;;;;38.80;43.60;;;;;;4943106;28;19925;-84
2023/06/02 10:25:22;;;;;;;;;;;38.30;44.10;;;;;;4938767;28;20139;-83
2023/06/02 10:27:49;;;;;;;;;;;39.80;43.40;;;;;;4954308;28;20470;-83
2023/06/02 10:30:18;;;;;;;;;;;39.50;43.90;;;;;;4962406;28;19921;-84
2023/06/02 10:32:50;;;;;;;;;;;40.00;44.00;;;;;;4943581;28;19934;-83
2023/06/02 10:35:21;;;;;;;;;;;39.60;43.70;;;;;;4945891;28;19910;-82
2023/06/02 10:37:48;;;;;;;;;;;40.40;43.70;;;;;;4940621;28;20372;-82
2023/06/02 10:40:15;;;;;;;;;;;40.90;43.60;;;;;;4947514;28;19942;-82
2023/06/02 10:43:07;;;;;;;;;;;39.60;44.40;;;;;;4942214;28;19914;-84
2023/06/02 10:45:35;;;;;;;;;;;40.20;44.00;;;;;;4946536;28;20013;-85
2023/06/02 10:48:20;;;;;;;;;;;39.40;43.50;;;;;;4945579;28;20264;-83
2023/06/02 10:50:57;;;;;;;;;;;39.70;43.60;;;;;;4951547;28;19990;-83
2023/06/02 10:53:22;;;;;;;;;;;39.60;44.20;;;;;;4954622;28;20598;-83
2023/06/02 10:55:48;;;;;;;;;;;39.90;44.00;;;;;;4944247;28;19914;-83
2023/06/02 10:58:20;;;;;;;;;;;38.30;44.40;;;;;;4950356;28;19918;-85
2023/06/02 11:00:46;;;;;;;;;;;36.10;46.10;;;;;;4962768;28;19922;-86
2023/06/02 11:03:17;;;;;;;;;;;34.80;47.30;;;;;;4940883;28;19918;-86
2023/06/02 11:05:44;;;;;;;;;;;33.70;48.60;;;;;;4942422;28;20403;-87
2023/06/02 11:08:14;;;;;;;;;;;32.70;49.70;;;;;;4944026;28;19953;-87
2023/06/02 11:13:57;;;;;;;;;;;30.90;51.40;;;;;;4945868;28;20144;-89
2023/06/02 11:16:43;;;;;;;;;;;30.60;52.90;;;;;;4941507;28;19990;-89
2023/06/02 11:19:28;;;;;;;;;;;30.20;52.10;;;;;;4944459;28;19987;-87
2023/06/02 11:24:56;;;;;;;;;;;29.70;54.20;;;;;;4942952;28;19921;-88
2023/06/02 11:30:25;;;;;;;;;;;29.40;53.50;;;;;;4943505;28;19968;-90
2023/06/02 11:35:57;;;;;;;;;;;29.00;54.30;;;;;;4944157;28;20389;-90
2023/06/02 11:38:24;;;;;;;;;;;29.50;54.60;;;;;;4955021;28;19994;-87
2023/06/02 11:40:50;;;;;;;;;;;29.80;55.40;;;;;;4941768;28;20338;-90
2023/06/02 11:46:19;;;;;;;;;;;29.30;55.10;;;;;;4948998;28;19925;-86
2023/06/02 11:49:08;;;;;;;;;;;29.50;54.00;;;;;;4940823;28;20393;-88
2023/06/02 11:51:35;;;;;;;;;;;29.60;52.40;;;;;;4940092;28;19953;-89
2023/06/02 11:57:12;;;;;;;;;;;29.40;53.90;;;;;;5013895;23;20004;-90
2023/06/02 12:05:09;;;;;;;;;;;28.30;55.80;;;;;;5492567;23;20379;-87
2023/06/02 12:07:46;;;;;;;;;;;28.70;56.50;;;;;;5005032;28;19922;-87
2023/06/02 12:10:12;;;;;;;;;;;28.50;56.00;;;;;;4989671;28;19953;-88
2023/06/02 12:15:55;;;;;;;;;;;29.10;55.50;;;;;;4986579;28;19921;-89
2023/06/02 12:21:38;;;;;;;;;;;28.60;55.50;;;;;;5736839;23;19930;-84
2023/06/02 12:50:08;;;;;;;;;;;27.30;56.90;;;;;;5998767;23;20031;-81
2023/06/02 12:52:53;;;;;;;;;;;27.20;57.10;;;;;;4964043;28;19974;-82
2023/06/02 12:55:25;;;;;;;;;;;27.30;56.70;;;;;;4955782;28;20035;-80
2023/06/02 12:57:52;;;;;;;;;;;27.30;56.80;;;;;;4970046;28;19960;-83
2023/06/02 13:00:24;;;;;;;;;;;27.80;56.30;;;;;;4963774;28;19911;-81
2023/06/02 13:03:04;;;;;;;;;;;27.70;55.70;;;;;;4953085;28;19918;-88
2023/06/02 13:05:35;;;;;;;;;;;28.20;55.70;;;;;;4951429;28;19910;-81
2023/06/02 13:08:12;;;;;;;;;;;27.90;55.60;;;;;;4946907;28;20148;-81
2023/06/02 13:10:39;;;;;;;;;;;27.80;56.10;;;;;;4954547;28;19949;-81
2023/06/02 13:13:17;;;;;;;;;;;27.80;56.10;;;;;;4962050;28;19910;-83
2023/06/02 13:15:43;;;;;;;;;;;27.70;55.60;;;;;;4968379;28;19925;-80
2023/06/02 13:18:10;;;;;;;;;;;27.80;55.60;;;;;;4947387;28;19914;-80
2023/06/02 13:20:39;;;;;;;;;;;27.50;56.60;;;;;;4950161;28;19914;-80
2023/06/02 13:23:06;;;;;;;;;;;27.60;56.10;;;;;;4945657;28;19957;-79
2023/06/02 13:25:34;;;;;;;;;;;27.70;56.40;;;;;;4954324;28;20006;-80
2023/06/02 13:28:00;;;;;;;;;;;27.60;56.20;;;;;;4954387;28;20001;-81
2023/06/02 13:30:27;;;;;;;;;;;27.80;56.80;;;;;;4955066;28;19997;-80
2023/06/02 13:32:54;;;;;;;;;;;28.10;56.60;;;;;;4953722;28;20315;-80
2023/06/02 13:35:45;;;;;;;;;;;28.00;56.70;;;;;;4952672;28;19918;-81
2023/06/02 13:38:12;;;;;;;;;;;27.50;56.50;;;;;;4934864;28;19979;-81
2023/06/02 13:40:39;;;;;;;;;;;27.30;57.50;;;;;;4955478;28;19916;-80
2023/06/02 13:43:05;;;;;;;;;;;27.30;57.70;;;;;;4953228;28;20240;-80
2023/06/02 13:45:38;;;;;;;;;;;27.50;57.40;;;;;;4951164;28;19918;-80
2023/06/02 13:48:10;;;;;;;;;;;27.70;57.20;;;;;;4954862;28;19969;-78
2023/06/02 13:50:38;;;;;;;;;;;28.20;56.40;;;;;;4954737;28;19965;-79
2023/06/02 13:53:05;;;;;;;;;;;28.40;55.20;;;;;;4957935;28;20016;-79
2023/06/02 13:55:31;;;;;;;;;;;28.40;55.00;;;;;;4954407;28;19925;-77
2023/06/02 13:58:00;;;;;;;;;;;28.50;56.20;;;;;;4954047;28;19914;-79
2023/06/02 14:00:28;;;;;;;;;;;28.10;55.60;;;;;;4947634;28;20029;-79
2023/06/02 14:03:02;;;;;;;;;;;28.10;56.50;;;;;;4948752;28;19914;-79
2023/06/02 14:05:29;;;;;;;;;;;27.60;56.70;;;;;;4949136;28;20044;-72
2023/06/02 14:07:57;;;;;;;;;;;27.20;57.80;;;;;;4952006;28;20021;-72
2023/06/02 14:10:22;;;;;;;;;;;27.20;57.70;;;;;;4951773;28;19914;-72
2023/06/02 14:12:48;;;;;;;;;;;27.30;57.60;;;;;;4947995;28;20114;-73
2023/06/02 14:15:13;;;;;;;;;;;27.20;58.00;;;;;;4948566;28;19954;-73
2023/06/02 14:17:39;;;;;;;;;;;27.50;58.90;;;;;;4952590;28;19910;-72
2023/06/02 14:20:05;;;;;;;;;;;27.70;58.30;;;;;;4957047;28;19976;-72
2023/06/02 14:22:31;;;;;;;;;;;27.90;58.50;;;;;;4952030;28;19922;-72
2023/06/02 14:24:56;;;;;;;;;;;28.00;57.50;;;;;;4953399;28;19914;-72
2023/06/02 14:27:22;;;;;;;;;;;27.80;57.00;;;;;;4951185;28;19910;-72
2023/06/02 14:29:48;;;;;;;;;;;27.50;57.30;;;;;;4952296;28;20379;-72
2023/06/02 14:32:13;;;;;;;;;;;27.60;56.60;;;;;;4950770;28;20360;-72
2023/06/02 14:34:39;;;;;;;;;;;27.50;55.40;;;;;;4952212;28;19996;-73
2023/06/02 14:37:05;;;;;;;;;;;27.70;56.20;;;;;;4951916;28;19918;-73
2023/06/02 14:39:30;;;;;;;;;;;28.10;55.90;;;;;;4952216;28;19918;-72
2023/06/02 14:41:56;;;;;;;;;;;28.20;55.30;;;;;;4947884;28;19914;-72
2023/06/02 14:44:22;;;;;;;;;;;28.40;54.20;;;;;;4949995;28;20060;-72
2023/06/02 14:46:47;;;;;;;;;;;28.50;54.00;;;;;;4954018;28;19914;-71
2023/06/02 14:49:13;;;;;;;;;;;28.00;54.10;;;;;;4954124;28;19918;-72
2023/06/02 14:51:38;;;;;;;;;;;28.20;54.80;;;;;;4951376;28;20430;-72
2023/06/02 14:54:04;;;;;;;;;;;28.20;53.90;;;;;;4945098;28;20407;-72
2023/06/02 14:56:29;;;;;;;;;;;27.80;53.30;;;;;;4955513;28;20513;-71
2023/06/02 14:58:55;;;;;;;;;;;27.20;55.00;;;;;;4950644;28;19914;-72
2023/06/02 15:01:20;;;;;;;;;;;27.20;55.60;;;;;;4957302;28;20522;-72
2023/06/02 15:03:46;;;;;;;;;;;26.90;55.30;;;;;;4950857;28;20283;-72
2023/06/02 15:06:12;;;;;;;;;;;26.80;56.00;;;;;;4953362;28;19918;-72
2023/06/02 15:08:37;;;;;;;;;;;26.80;56.00;;;;;;4953090;28;19921;-71
2023/06/02 15:11:03;;;;;;;;;;;27.00;56.50;;;;;;4953434;28;19969;-72
2023/06/02 15:13:30;;;;;;;;;;;27.20;56.00;;;;;;4952910;28;20024;-72
2023/06/02 15:15:58;;;;;;;;;;;27.40;56.00;;;;;;4959263;28;20497;-72
2023/06/02 15:18:23;;;;;;;;;;;27.50;56.00;;;;;;4953894;28;19917;-72